sensor_id;sensor_type;location;lat;lon;timestamp;temperature;humidity
18807;DHT22;9531;52.030;4.380;2023-02-11T00:01:20;7.10;1.00
18807;DHT22;9531;52.030;4.380;2023-02-11T00:03:48;4.60;99.90
18807;DHT22;9531;52.030;4.380;2023-02-11T00:06:17;8.20;99.90
18807;DHT22;9531;52.030;4.380;2023-02-11T00:08:44;7.50;99.90
18807;DHT22;9531;52.030;4.380;2023-02-11T00:11:12;7.60;99.90
18807;DHT22;9531;52.030;4.380;2023-02-11T00:13:40;9.50;99.90
18807;DHT22;9531;52.030;4.380;2023-02-11T00:16:08;3.70;1.00
18807;DHT22;9531;52.030;4.380;2023-02-11T00:18:36;9.90;99.90
18807;DHT22;9531;52.030;4.380;2023-02-11T00:21:07;7.50;99.90
18807;DHT22;9531;52.030;4.380;2023-02-11T00:23:36;9.70;99.90
18807;DHT22;9531;52.030;4.380;2023-02-11T00:26:04;7.50;99.90
18807;DHT22;9531;52.030;4.380;2023-02-11T00:28:37;6.20;99.90
18807;DHT22;9531;52.030;4.380;2023-02-11T00:31:04;7.60;99.90
18807;DHT22;9531;52.030;4.380;2023-02-11T00:33:31;7.50;99.90
18807;DHT22;9531;52.030;4.380;2023-02-11T00:35:58;5.20;1.00
18807;DHT22;9531;52.030;4.380;2023-02-11T00:38:29;6.10;99.90
18807;DHT22;9531;52.030;4.380;2023-02-11T00:40:58;7.50;99.90
18807;DHT22;9531;52.030;4.380;2023-02-11T00:43:25;7.50;99.90
18807;DHT22;9531;52.030;4.380;2023-02-11T00:48:19;8.20;1.40
18807;DHT22;9531;52.030;4.380;2023-02-11T00:50:46;9.40;99.90
18807;DHT22;9531;52.030;4.380;2023-02-11T00:53:14;8.30;99.90
18807;DHT22;9531;52.030;4.380;2023-02-11T00:55:41;7.70;99.90
18807;DHT22;9531;52.030;4.380;2023-02-11T00:58:10;7.60;99.90
18807;DHT22;9531;52.030;4.380;2023-02-11T01:00:37;8.00;99.90
18807;DHT22;9531;52.030;4.380;2023-02-11T01:05:32;7.90;99.90
18807;DHT22;9531;52.030;4.380;2023-02-11T01:07:59;8.10;99.90
18807;DHT22;9531;52.030;4.380;2023-02-11T01:15:26;5.20;1.40
18807;DHT22;9531;52.030;4.380;2023-02-11T01:17:59;6.50;99.90
18807;DHT22;9531;52.030;4.380;2023-02-11T01:20:27;7.60;99.90
18807;DHT22;9531;52.030;4.380;2023-02-11T01:22:54;7.20;1.40
18807;DHT22;9531;52.030;4.380;2023-02-11T01:25:27;7.40;99.90
18807;DHT22;9531;52.030;4.380;2023-02-11T01:27:54;8.60;99.90
18807;DHT22;9531;52.030;4.380;2023-02-11T01:30:23;8.10;99.90
18807;DHT22;9531;52.030;4.380;2023-02-11T01:32:50;9.40;99.90
18807;DHT22;9531;52.030;4.380;2023-02-11T01:35:17;7.50;99.90
18807;DHT22;9531;52.030;4.380;2023-02-11T01:37:50;8.10;99.90
18807;DHT22;9531;52.030;4.380;2023-02-11T01:40:17;9.50;99.90
18807;DHT22;9531;52.030;4.380;2023-02-11T01:45:46;6.90;99.90
18807;DHT22;9531;52.030;4.380;2023-02-11T01:48:18;5.00;99.90
18807;DHT22;9531;52.030;4.380;2023-02-11T01:50:50;5.00;1.00
18807;DHT22;9531;52.030;4.380;2023-02-11T01:53:18;4.90;99.90
18807;DHT22;9531;52.030;4.380;2023-02-11T01:56:04;7.30;99.90
18807;DHT22;9531;52.030;4.380;2023-02-11T01:58:50;6.80;1.40
18807;DHT22;9531;52.030;4.380;2023-02-11T02:01:23;7.70;99.90
18807;DHT22;9531;52.030;4.380;2023-02-11T02:03:53;4.60;1.00
18807;DHT22;9531;52.030;4.380;2023-02-11T02:06:33;6.60;1.00
18807;DHT22;9531;52.030;4.380;2023-02-11T02:09:05;4.20;1.00
18807;DHT22;9531;52.030;4.380;2023-02-11T02:11:35;5.60;99.90
18807;DHT22;9531;52.030;4.380;2023-02-11T02:14:02;4.20;1.00
18807;DHT22;9531;52.030;4.380;2023-02-11T02:16:33;7.50;1.00
18807;DHT22;9531;52.030;4.380;2023-02-11T02:19:25;6.50;1.00
18807;DHT22;9531;52.030;4.380;2023-02-11T02:25:32;3.90;1.00
18807;DHT22;9531;52.030;4.380;2023-02-11T02:28:13;9.10;1.00
18807;DHT22;9531;52.030;4.380;2023-02-11T02:31:16;6.70;99.90
18807;DHT22;9531;52.030;4.380;2023-02-11T02:33:53;6.20;1.00
18807;DHT22;9531;52.030;4.380;2023-02-11T02:36:26;6.60;1.00
18807;DHT22;9531;52.030;4.380;2023-02-11T02:38:59;4.50;99.90
18807;DHT22;9531;52.030;4.380;2023-02-11T02:41:29;7.40;1.00
18807;DHT22;9531;52.030;4.380;2023-02-11T02:43:58;6.50;99.90
18807;DHT22;9531;52.030;4.380;2023-02-11T02:46:27;7.40;1.00
18807;DHT22;9531;52.030;4.380;2023-02-11T02:48:58;4.20;99.90
18807;DHT22;9531;52.030;4.380;2023-02-11T02:51:44;5.00;1.00
18807;DHT22;9531;52.030;4.380;2023-02-11T02:57:29;6.80;1.00
18807;DHT22;9531;52.030;4.380;2023-02-11T03:00:16;6.30;99.90
18807;DHT22;9531;52.030;4.380;2023-02-11T03:02:56;6.30;99.90
18807;DHT22;9531;52.030;4.380;2023-02-11T03:05:33;8.30;99.90
18807;DHT22;9531;52.030;4.380;2023-02-11T03:08:05;3.10;1.00
18807;DHT22;9531;52.030;4.380;2023-02-11T03:10:36;5.90;99.90
18807;DHT22;9531;52.030;4.380;2023-02-11T03:13:05;6.30;99.90
18807;DHT22;9531;52.030;4.380;2023-02-11T03:15:39;5.90;99.90
18807;DHT22;9531;52.030;4.380;2023-02-11T03:18:08;6.00;1.00
18807;DHT22;9531;52.030;4.380;2023-02-11T03:20:41;4.80;99.90
18807;DHT22;9531;52.030;4.380;2023-02-11T03:23:18;6.80;99.90
18807;DHT22;9531;52.030;4.380;2023-02-11T03:25:49;6.60;1.00
18807;DHT22;9531;52.030;4.380;2023-02-11T03:28:21;6.10;1.00
18807;DHT22;9531;52.030;4.380;2023-02-11T03:30:54;3.80;1.00
18807;DHT22;9531;52.030;4.380;2023-02-11T03:33:27;6.40;1.00
18807;DHT22;9531;52.030;4.380;2023-02-11T03:36:01;8.20;1.00
18807;DHT22;9531;52.030;4.380;2023-02-11T03:38:32;3.20;1.00
18807;DHT22;9531;52.030;4.380;2023-02-11T03:41:01;8.30;1.00
18807;DHT22;9531;52.030;4.380;2023-02-11T03:43:35;3.10;1.00
18807;DHT22;9531;52.030;4.380;2023-02-11T03:46:06;5.50;1.00
18807;DHT22;9531;52.030;4.380;2023-02-11T03:48:37;6.10;99.90
18807;DHT22;9531;52.030;4.380;2023-02-11T03:51:09;6.60;1.00
18807;DHT22;9531;52.030;4.380;2023-02-11T03:53:40;6.60;1.00
18807;DHT22;9531;52.030;4.380;2023-02-11T03:56:13;8.30;1.00
18807;DHT22;9531;52.030;4.380;2023-02-11T03:58:47;6.70;1.00
18807;DHT22;9531;52.030;4.380;2023-02-11T04:01:14;2.80;1.00
18807;DHT22;9531;52.030;4.380;2023-02-11T04:03:42;6.70;1.00
18807;DHT22;9531;52.030;4.380;2023-02-11T04:06:12;6.10;99.90
18807;DHT22;9531;52.030;4.380;2023-02-11T04:08:39;5.80;1.00
18807;DHT22;9531;52.030;4.380;2023-02-11T04:11:06;6.70;1.00
18807;DHT22;9531;52.030;4.380;2023-02-11T04:13:34;5.60;1.00
18807;DHT22;9531;52.030;4.380;2023-02-11T04:16:04;8.30;1.00
18807;DHT22;9531;52.030;4.380;2023-02-11T04:18:31;8.30;1.00
18807;DHT22;9531;52.030;4.380;2023-02-11T04:20:58;8.20;1.00
18807;DHT22;9531;52.030;4.380;2023-02-11T04:23:28;3.70;1.00
18807;DHT22;9531;52.030;4.380;2023-02-11T04:25:55;8.30;1.00
18807;DHT22;9531;52.030;4.380;2023-02-11T04:33:18;5.90;99.90
18807;DHT22;9531;52.030;4.380;2023-02-11T04:35:46;3.30;1.00
18807;DHT22;9531;52.030;4.380;2023-02-11T04:38:13;6.50;1.00
18807;DHT22;9531;52.030;4.380;2023-02-11T04:40:41;5.80;1.00
18807;DHT22;9531;52.030;4.380;2023-02-11T04:43:09;6.50;1.00
18807;DHT22;9531;52.030;4.380;2023-02-11T04:45:36;6.00;99.90
18807;DHT22;9531;52.030;4.380;2023-02-11T04:48:03;8.20;1.00
18807;DHT22;9531;52.030;4.380;2023-02-11T04:50:30;6.00;99.90
18807;DHT22;9531;52.030;4.380;2023-02-11T04:52:57;6.50;1.00
18807;DHT22;9531;52.030;4.380;2023-02-11T04:55:28;5.40;1.00
18807;DHT22;9531;52.030;4.380;2023-02-11T04:57:56;3.80;1.00
18807;DHT22;9531;52.030;4.380;2023-02-11T05:00:23;6.80;1.00
18807;DHT22;9531;52.030;4.380;2023-02-11T05:05:17;8.30;1.00
18807;DHT22;9531;52.030;4.380;2023-02-11T05:07:44;5.60;1.00
18807;DHT22;9531;52.030;4.380;2023-02-11T05:12:40;5.90;1.00
18807;DHT22;9531;52.030;4.380;2023-02-11T05:15:10;6.50;99.90
18807;DHT22;9531;52.030;4.380;2023-02-11T05:17:40;4.70;1.00
18807;DHT22;9531;52.030;4.380;2023-02-11T05:20:10;6.50;1.00
18807;DHT22;9531;52.030;4.380;2023-02-11T05:22:37;6.00;99.90
18807;DHT22;9531;52.030;4.380;2023-02-11T05:25:04;5.80;1.00
18807;DHT22;9531;52.030;4.380;2023-02-11T05:27:32;6.10;99.90
18807;DHT22;9531;52.030;4.380;2023-02-11T05:29:59;6.80;1.00
18807;DHT22;9531;52.030;4.380;2023-02-11T05:32:27;6.10;99.90
18807;DHT22;9531;52.030;4.380;2023-02-11T05:34:55;6.10;99.90
18807;DHT22;9531;52.030;4.380;2023-02-11T05:37:22;6.80;1.00
18807;DHT22;9531;52.030;4.380;2023-02-11T05:39:51;4.40;1.00
18807;DHT22;9531;52.030;4.380;2023-02-11T05:42:18;8.30;1.00
18807;DHT22;9531;52.030;4.380;2023-02-11T05:44:46;6.00;1.00
18807;DHT22;9531;52.030;4.380;2023-02-11T05:47:14;6.70;1.00
18807;DHT22;9531;52.030;4.380;2023-02-11T05:49:42;6.00;1.00
18807;DHT22;9531;52.030;4.380;2023-02-11T05:52:09;8.40;1.00
18807;DHT22;9531;52.030;4.380;2023-02-11T05:54:36;6.90;1.00
18807;DHT22;9531;52.030;4.380;2023-02-11T05:57:03;5.80;1.00
18807;DHT22;9531;52.030;4.380;2023-02-11T05:59:30;5.80;1.00
18807;DHT22;9531;52.030;4.380;2023-02-11T06:01:58;7.00;1.00
18807;DHT22;9531;52.030;4.380;2023-02-11T06:04:26;5.80;1.00
18807;DHT22;9531;52.030;4.380;2023-02-11T06:06:55;6.10;1.00
18807;DHT22;9531;52.030;4.380;2023-02-11T06:09:24;6.80;1.00
18807;DHT22;9531;52.030;4.380;2023-02-11T06:11:51;7.00;1.00
18807;DHT22;9531;52.030;4.380;2023-02-11T06:14:18;6.70;1.00
18807;DHT22;9531;52.030;4.380;2023-02-11T06:16:46;6.20;1.00
18807;DHT22;9531;52.030;4.380;2023-02-11T06:19:13;8.20;1.00
18807;DHT22;9531;52.030;4.380;2023-02-11T06:21:40;5.90;1.00
18807;DHT22;9531;52.030;4.380;2023-02-11T06:24:08;5.80;99.90
18807;DHT22;9531;52.030;4.380;2023-02-11T06:26:36;7.10;1.00
18807;DHT22;9531;52.030;4.380;2023-02-11T06:29:03;4.70;1.00
18807;DHT22;9531;52.030;4.380;2023-02-11T06:31:30;5.90;99.90
18807;DHT22;9531;52.030;4.380;2023-02-11T06:33:56;6.90;1.00
18807;DHT22;9531;52.030;4.380;2023-02-11T06:36:24;5.20;1.00
18807;DHT22;9531;52.030;4.380;2023-02-11T06:38:51;4.70;99.90
18807;DHT22;9531;52.030;4.380;2023-02-11T06:41:19;3.40;1.00
18807;DHT22;9531;52.030;4.380;2023-02-11T06:43:48;6.00;1.00
18807;DHT22;9531;52.030;4.380;2023-02-11T06:46:15;8.60;1.00
18807;DHT22;9531;52.030;4.380;2023-02-11T06:48:42;5.80;1.00
18807;DHT22;9531;52.030;4.380;2023-02-11T06:51:10;6.20;1.00
18807;DHT22;9531;52.030;4.380;2023-02-11T06:53:42;8.50;1.00
18807;DHT22;9531;52.030;4.380;2023-02-11T06:56:12;6.00;1.00
18807;DHT22;9531;52.030;4.380;2023-02-11T06:58:40;6.20;99.90
18807;DHT22;9531;52.030;4.380;2023-02-11T07:01:10;5.10;1.00
18807;DHT22;9531;52.030;4.380;2023-02-11T07:03:39;6.10;99.90
18807;DHT22;9531;52.030;4.380;2023-02-11T07:06:12;6.80;1.00
18807;DHT22;9531;52.030;4.380;2023-02-11T07:08:40;5.80;1.00
18807;DHT22;9531;52.030;4.380;2023-02-11T07:11:09;6.00;1.00
18807;DHT22;9531;52.030;4.380;2023-02-11T07:16:07;5.90;1.00
18807;DHT22;9531;52.030;4.380;2023-02-11T07:18:34;7.00;1.00
18807;DHT22;9531;52.030;4.380;2023-02-11T07:21:03;8.20;99.90
18807;DHT22;9531;52.030;4.380;2023-02-11T07:23:31;6.00;99.90
18807;DHT22;9531;52.030;4.380;2023-02-11T07:26:01;5.60;1.00
18807;DHT22;9531;52.030;4.380;2023-02-11T07:28:28;6.10;1.00
18807;DHT22;9531;52.030;4.380;2023-02-11T07:30:56;7.30;1.00
18807;DHT22;9531;52.030;4.380;2023-02-11T07:33:24;6.10;99.90
18807;DHT22;9531;52.030;4.380;2023-02-11T07:35:51;6.00;1.00
18807;DHT22;9531;52.030;4.380;2023-02-11T07:38:18;8.40;1.00
18807;DHT22;9531;52.030;4.380;2023-02-11T07:43:13;8.30;1.00
18807;DHT22;9531;52.030;4.380;2023-02-11T07:45:40;5.10;1.00
18807;DHT22;9531;52.030;4.380;2023-02-11T07:48:07;5.70;1.00
18807;DHT22;9531;52.030;4.380;2023-02-11T07:50:35;6.20;1.00
18807;DHT22;9531;52.030;4.380;2023-02-11T07:53:02;5.30;1.00
18807;DHT22;9531;52.030;4.380;2023-02-11T07:55:29;6.40;1.00
18807;DHT22;9531;52.030;4.380;2023-02-11T07:57:56;6.10;1.00
18807;DHT22;9531;52.030;4.380;2023-02-11T08:00:24;6.10;1.00
18807;DHT22;9531;52.030;4.380;2023-02-11T08:02:51;3.30;1.00
18807;DHT22;9531;52.030;4.380;2023-02-11T08:05:18;6.50;1.00
18807;DHT22;9531;52.030;4.380;2023-02-11T08:07:50;8.90;1.00
18807;DHT22;9531;52.030;4.380;2023-02-11T08:10:17;4.80;1.00
18807;DHT22;9531;52.030;4.380;2023-02-11T08:12:44;5.70;99.90
18807;DHT22;9531;52.030;4.380;2023-02-11T08:15:11;6.10;1.00
18807;DHT22;9531;52.030;4.380;2023-02-11T08:20:08;6.40;1.00
18807;DHT22;9531;52.030;4.380;2023-02-11T08:22:37;7.40;1.00
18807;DHT22;9531;52.030;4.380;2023-02-11T08:25:06;4.10;1.00
18807;DHT22;9531;52.030;4.380;2023-02-11T08:27:33;6.40;1.00
18807;DHT22;9531;52.030;4.380;2023-02-11T08:30:00;6.30;1.00
18807;DHT22;9531;52.030;4.380;2023-02-11T08:32:27;7.80;1.00
18807;DHT22;9531;52.030;4.380;2023-02-11T08:34:54;4.80;1.00
18807;DHT22;9531;52.030;4.380;2023-02-11T08:39:48;7.50;99.90
18807;DHT22;9531;52.030;4.380;2023-02-11T08:42:17;5.00;1.00
18807;DHT22;9531;52.030;4.380;2023-02-11T08:44:44;4.40;1.00
18807;DHT22;9531;52.030;4.380;2023-02-11T08:47:11;7.40;99.90
18807;DHT22;9531;52.030;4.380;2023-02-11T08:49:38;5.40;1.00
18807;DHT22;9531;52.030;4.380;2023-02-11T08:52:07;5.00;1.00
18807;DHT22;9531;52.030;4.380;2023-02-11T08:54:36;7.00;1.00
18807;DHT22;9531;52.030;4.380;2023-02-11T08:57:03;5.40;1.00
18807;DHT22;9531;52.030;4.380;2023-02-11T08:59:31;8.00;99.90
18807;DHT22;9531;52.030;4.380;2023-02-11T09:01:59;9.90;1.00
18807;DHT22;9531;52.030;4.380;2023-02-11T09:04:26;8.60;1.00
18807;DHT22;9531;52.030;4.380;2023-02-11T09:06:53;8.40;1.00
18807;DHT22;9531;52.030;4.380;2023-02-11T09:09:20;9.90;1.00
18807;DHT22;9531;52.030;4.380;2023-02-11T09:11:47;7.80;99.90
18807;DHT22;9531;52.030;4.380;2023-02-11T09:14:17;9.90;1.00
18807;DHT22;9531;52.030;4.380;2023-02-11T09:16:46;8.20;1.00
18807;DHT22;9531;52.030;4.380;2023-02-11T09:19:13;7.70;1.00
18807;DHT22;9531;52.030;4.380;2023-02-11T09:21:40;10.10;1.00
18807;DHT22;9531;52.030;4.380;2023-02-11T09:24:07;6.70;1.00
18807;DHT22;9531;52.030;4.380;2023-02-11T09:26:35;7.80;1.00
18807;DHT22;9531;52.030;4.380;2023-02-11T09:29:03;8.90;1.00
18807;DHT22;9531;52.030;4.380;2023-02-11T09:31:32;6.80;1.00
18807;DHT22;9531;52.030;4.380;2023-02-11T09:34:02;8.00;1.00
18807;DHT22;9531;52.030;4.380;2023-02-11T09:36:32;7.30;1.00
18807;DHT22;9531;52.030;4.380;2023-02-11T09:39:02;6.50;1.00
18807;DHT22;9531;52.030;4.380;2023-02-11T09:44:37;10.50;1.00
18807;DHT22;9531;52.030;4.380;2023-02-11T09:47:12;8.40;99.90
18807;DHT22;9531;52.030;4.380;2023-02-11T09:49:49;8.20;1.00
18807;DHT22;9531;52.030;4.380;2023-02-11T09:52:28;8.20;1.00
18807;DHT22;9531;52.030;4.380;2023-02-11T09:54:58;8.20;1.00
18807;DHT22;9531;52.030;4.380;2023-02-11T09:57:31;5.70;1.00
18807;DHT22;9531;52.030;4.380;2023-02-11T09:59:58;7.20;99.90
18807;DHT22;9531;52.030;4.380;2023-02-11T10:02:32;5.80;1.00
18807;DHT22;9531;52.030;4.380;2023-02-11T10:05:31;6.10;1.00
18807;DHT22;9531;52.030;4.380;2023-02-11T10:08:04;8.70;99.90
18807;DHT22;9531;52.030;4.380;2023-02-11T10:10:49;6.10;1.00
18807;DHT22;9531;52.030;4.380;2023-02-11T10:13:34;8.80;99.90
18807;DHT22;9531;52.030;4.380;2023-02-11T10:16:12;8.50;1.00
18807;DHT22;9531;52.030;4.380;2023-02-11T10:21:46;10.90;1.00
18807;DHT22;9531;52.030;4.380;2023-02-11T10:24:16;8.90;1.00
18807;DHT22;9531;52.030;4.380;2023-02-11T10:26:44;9.20;99.90
18807;DHT22;9531;52.030;4.380;2023-02-11T10:29:23;9.80;1.00
18807;DHT22;9531;52.030;4.380;2023-02-11T10:31:52;9.90;1.00
18807;DHT22;9531;52.030;4.380;2023-02-11T10:34:19;7.40;1.00
18807;DHT22;9531;52.030;4.380;2023-02-11T10:36:48;8.70;1.00
18807;DHT22;9531;52.030;4.380;2023-02-11T10:39:17;11.30;1.00
18807;DHT22;9531;52.030;4.380;2023-02-11T10:41:46;11.50;1.00
18807;DHT22;9531;52.030;4.380;2023-02-11T10:44:23;9.30;1.00
18807;DHT22;9531;52.030;4.380;2023-02-11T10:46:51;11.40;1.00
18807;DHT22;9531;52.030;4.380;2023-02-11T10:49:37;7.10;1.00
18807;DHT22;9531;52.030;4.380;2023-02-11T10:52:20;8.10;1.00
18807;DHT22;9531;52.030;4.380;2023-02-11T10:55:03;10.50;1.00
18807;DHT22;9531;52.030;4.380;2023-02-11T10:57:37;9.10;1.00
18807;DHT22;9531;52.030;4.380;2023-02-11T11:00:25;7.20;1.00
18807;DHT22;9531;52.030;4.380;2023-02-11T11:03:02;9.00;1.00
18807;DHT22;9531;52.030;4.380;2023-02-11T11:05:31;8.80;1.00
18807;DHT22;9531;52.030;4.380;2023-02-11T11:08:03;9.40;1.00
18807;DHT22;9531;52.030;4.380;2023-02-11T11:10:37;9.90;99.90
18807;DHT22;9531;52.030;4.380;2023-02-11T11:13:25;9.90;99.90
18807;DHT22;9531;52.030;4.380;2023-02-11T11:16:18;12.20;1.00
18807;DHT22;9531;52.030;4.380;2023-02-11T11:18:48;10.80;99.90
18807;DHT22;9531;52.030;4.380;2023-02-11T11:21:20;9.60;1.00
18807;DHT22;9531;52.030;4.380;2023-02-11T11:23:55;11.40;1.00
18807;DHT22;9531;52.030;4.380;2023-02-11T11:26:24;12.00;1.00
18807;DHT22;9531;52.030;4.380;2023-02-11T11:28:58;12.00;1.00
18807;DHT22;9531;52.030;4.380;2023-02-11T11:31:30;7.10;1.00
18807;DHT22;9531;52.030;4.380;2023-02-11T11:34:24;12.10;1.00
18807;DHT22;9531;52.030;4.380;2023-02-11T11:36:53;9.70;99.90
18807;DHT22;9531;52.030;4.380;2023-02-11T11:39:25;10.10;99.90
18807;DHT22;9531;52.030;4.380;2023-02-11T11:41:56;10.10;99.90
18807;DHT22;9531;52.030;4.380;2023-02-11T11:44:29;10.20;99.90
18807;DHT22;9531;52.030;4.380;2023-02-11T11:47:28;9.80;1.00
18807;DHT22;9531;52.030;4.380;2023-02-11T11:50:24;8.00;1.00
18807;DHT22;9531;52.030;4.380;2023-02-11T11:52:57;12.60;1.00
18807;DHT22;9531;52.030;4.380;2023-02-11T11:55:32;12.30;1.00
18807;DHT22;9531;52.030;4.380;2023-02-11T11:58:12;9.90;99.90
18807;DHT22;9531;52.030;4.380;2023-02-11T12:00:53;7.30;1.00
18807;DHT22;9531;52.030;4.380;2023-02-11T12:06:25;8.80;1.00
18807;DHT22;9531;52.030;4.380;2023-02-11T12:09:03;10.80;99.90
18807;DHT22;9531;52.030;4.380;2023-02-11T12:11:50;10.60;99.90
18807;DHT22;9531;52.030;4.380;2023-02-11T12:14:27;7.90;1.00
18807;DHT22;9531;52.030;4.380;2023-02-11T12:17:02;9.90;1.00
18807;DHT22;9531;52.030;4.380;2023-02-11T12:19:41;8.30;1.00
18807;DHT22;9531;52.030;4.380;2023-02-11T12:22:22;10.00;1.00
18807;DHT22;9531;52.030;4.380;2023-02-11T12:25:13;11.20;1.00
18807;DHT22;9531;52.030;4.380;2023-02-11T12:27:49;10.40;99.90
18807;DHT22;9531;52.030;4.380;2023-02-11T12:33:28;10.00;1.00
18807;DHT22;9531;52.030;4.380;2023-02-11T12:36:03;10.10;1.00
18807;DHT22;9531;52.030;4.380;2023-02-11T12:38:50;10.10;1.00
18807;DHT22;9531;52.030;4.380;2023-02-11T12:41:30;10.50;99.90
18807;DHT22;9531;52.030;4.380;2023-02-11T12:44:27;10.50;99.90
18807;DHT22;9531;52.030;4.380;2023-02-11T12:47:05;10.10;1.00
18807;DHT22;9531;52.030;4.380;2023-02-11T12:49:48;10.30;1.00
18807;DHT22;9531;52.030;4.380;2023-02-11T12:52:29;8.60;1.00
18807;DHT22;9531;52.030;4.380;2023-02-11T12:55:17;9.10;1.00
18807;DHT22;9531;52.030;4.380;2023-02-11T12:57:46;10.60;99.90
18807;DHT22;9531;52.030;4.380;2023-02-11T13:00:20;10.70;99.90
18807;DHT22;9531;52.030;4.380;2023-02-11T13:02:53;10.90;99.90
18807;DHT22;9531;52.030;4.380;2023-02-11T13:05:25;13.00;1.00
18807;DHT22;9531;52.030;4.380;2023-02-11T13:07:59;10.70;1.00
18807;DHT22;9531;52.030;4.380;2023-02-11T13:10:32;9.00;99.90
18807;DHT22;9531;52.030;4.380;2023-02-11T13:13:14;11.80;1.00
18807;DHT22;9531;52.030;4.380;2023-02-11T13:15:50;10.90;99.90
18807;DHT22;9531;52.030;4.380;2023-02-11T13:18:36;8.60;1.00
18807;DHT22;9531;52.030;4.380;2023-02-11T13:24:04;10.50;1.00
18807;DHT22;9531;52.030;4.380;2023-02-11T13:26:40;11.60;1.00
18807;DHT22;9531;52.030;4.380;2023-02-11T13:29:16;11.00;99.90
18807;DHT22;9531;52.030;4.380;2023-02-11T13:31:53;13.00;1.00
18807;DHT22;9531;52.030;4.380;2023-02-11T13:34:54;10.50;1.00
18807;DHT22;9531;52.030;4.380;2023-02-11T13:37:23;11.10;99.90
18807;DHT22;9531;52.030;4.380;2023-02-11T13:39:59;9.40;1.00
18807;DHT22;9531;52.030;4.380;2023-02-11T13:42:26;12.30;1.00
18807;DHT22;9531;52.030;4.380;2023-02-11T13:44:54;12.90;99.90
18807;DHT22;9531;52.030;4.380;2023-02-11T13:47:27;10.90;99.90
18807;DHT22;9531;52.030;4.380;2023-02-11T13:49:58;8.40;1.00
18807;DHT22;9531;52.030;4.380;2023-02-11T13:52:28;11.00;1.00
18807;DHT22;9531;52.030;4.380;2023-02-11T13:55:00;13.10;99.90
18807;DHT22;9531;52.030;4.380;2023-02-11T13:57:37;10.90;1.00
18807;DHT22;9531;52.030;4.380;2023-02-11T14:03:28;10.90;99.90
18807;DHT22;9531;52.030;4.380;2023-02-11T14:06:17;11.30;99.90
18807;DHT22;9531;52.030;4.380;2023-02-11T14:09:34;12.50;99.90
18807;DHT22;9531;52.030;4.380;2023-02-11T14:12:23;10.90;1.40
18807;DHT22;9531;52.030;4.380;2023-02-11T14:20:39;11.00;1.00
18807;DHT22;9531;52.030;4.380;2023-02-11T14:23:24;11.40;99.90
18807;DHT22;9531;52.030;4.380;2023-02-11T14:28:59;11.00;1.00
18807;DHT22;9531;52.030;4.380;2023-02-11T14:31:32;11.50;99.90
18807;DHT22;9531;52.030;4.380;2023-02-11T14:34:17;11.50;99.90
18807;DHT22;9531;52.030;4.380;2023-02-11T14:37:07;13.50;1.00
18807;DHT22;9531;52.030;4.380;2023-02-11T14:39:50;11.30;99.90
18807;DHT22;9531;52.030;4.380;2023-02-11T14:42:25;12.00;1.00
18807;DHT22;9531;52.030;4.380;2023-02-11T14:44:56;13.80;1.00
18807;DHT22;9531;52.030;4.380;2023-02-11T14:47:28;11.10;1.00
18807;DHT22;9531;52.030;4.380;2023-02-11T14:49:55;11.50;99.90
18807;DHT22;9531;52.030;4.380;2023-02-11T14:52:26;13.70;1.00
18807;DHT22;9531;52.030;4.380;2023-02-11T14:55:04;13.80;1.00
18807;DHT22;9531;52.030;4.380;2023-02-11T14:57:34;13.10;1.00
18807;DHT22;9531;52.030;4.380;2023-02-11T15:00:05;13.30;1.00
18807;DHT22;9531;52.030;4.380;2023-02-11T15:02:42;11.60;1.00
18807;DHT22;9531;52.030;4.380;2023-02-11T15:05:14;11.40;99.90
18807;DHT22;9531;52.030;4.380;2023-02-11T15:07:44;11.10;1.00
18807;DHT22;9531;52.030;4.380;2023-02-11T15:10:21;11.20;1.00
18807;DHT22;9531;52.030;4.380;2023-02-11T15:12:54;11.00;1.00
18807;DHT22;9531;52.030;4.380;2023-02-11T15:20:19;9.30;1.00
18807;DHT22;9531;52.030;4.380;2023-02-11T15:22:51;9.30;1.00
18807;DHT22;9531;52.030;4.380;2023-02-11T15:25:19;10.30;1.00
18807;DHT22;9531;52.030;4.380;2023-02-11T15:27:49;11.20;99.90
18807;DHT22;9531;52.030;4.380;2023-02-11T15:30:29;10.90;1.00
18807;DHT22;9531;52.030;4.380;2023-02-11T15:33:00;9.80;1.00
18807;DHT22;9531;52.030;4.380;2023-02-11T15:35:29;12.80;99.90
18807;DHT22;9531;52.030;4.380;2023-02-11T15:37:58;10.90;1.00
18807;DHT22;9531;52.030;4.380;2023-02-11T15:40:27;10.80;1.00
18807;DHT22;9531;52.030;4.380;2023-02-11T15:42:56;11.00;99.90
18807;DHT22;9531;52.030;4.380;2023-02-11T15:45:27;12.80;1.00
18807;DHT22;9531;52.030;4.380;2023-02-11T15:48:09;10.70;1.00
18807;DHT22;9531;52.030;4.380;2023-02-11T15:50:39;12.80;1.00
18807;DHT22;9531;52.030;4.380;2023-02-11T15:53:20;12.80;1.00
18807;DHT22;9531;52.030;4.380;2023-02-11T15:55:49;11.80;1.00
18807;DHT22;9531;52.030;4.380;2023-02-11T15:58:17;12.80;1.00
18807;DHT22;9531;52.030;4.380;2023-02-11T16:00:47;11.30;99.90
18807;DHT22;9531;52.030;4.380;2023-02-11T16:03:22;10.70;1.00
18807;DHT22;9531;52.030;4.380;2023-02-11T16:05:50;11.20;1.00
18807;DHT22;9531;52.030;4.380;2023-02-11T16:08:23;11.30;1.00
18807;DHT22;9531;52.030;4.380;2023-02-11T16:10:56;8.60;1.00
18807;DHT22;9531;52.030;4.380;2023-02-11T16:13:25;12.30;1.00
18807;DHT22;9531;52.030;4.380;2023-02-11T16:15:55;12.40;1.00
18807;DHT22;9531;52.030;4.380;2023-02-11T16:18:34;10.90;1.00
18807;DHT22;9531;52.030;4.380;2023-02-11T16:21:05;8.20;1.00
18807;DHT22;9531;52.030;4.380;2023-02-11T16:23:35;8.90;1.00
18807;DHT22;9531;52.030;4.380;2023-02-11T16:26:05;10.00;1.00
18807;DHT22;9531;52.030;4.380;2023-02-11T16:28:34;10.20;1.00
18807;DHT22;9531;52.030;4.380;2023-02-11T16:31:04;12.20;99.90
18807;DHT22;9531;52.030;4.380;2023-02-11T16:33:31;10.80;1.00
18807;DHT22;9531;52.030;4.380;2023-02-11T16:35:58;12.10;1.00
18807;DHT22;9531;52.030;4.380;2023-02-11T16:38:27;10.20;99.90
18807;DHT22;9531;52.030;4.380;2023-02-11T16:40:54;9.50;1.00
18807;DHT22;9531;52.030;4.380;2023-02-11T16:45:49;9.00;1.00
18807;DHT22;9531;52.030;4.380;2023-02-11T16:48:18;7.90;1.00
18807;DHT22;9531;52.030;4.380;2023-02-11T16:50:47;10.10;99.90
18807;DHT22;9531;52.030;4.380;2023-02-11T16:53:20;10.00;99.90
18807;DHT22;9531;52.030;4.380;2023-02-11T16:55:48;8.00;1.00
18807;DHT22;9531;52.030;4.380;2023-02-11T16:58:15;9.80;1.00
18807;DHT22;9531;52.030;4.380;2023-02-11T17:00:43;7.40;1.00
18807;DHT22;9531;52.030;4.380;2023-02-11T17:03:17;8.80;99.90
18807;DHT22;9531;52.030;4.380;2023-02-11T17:05:45;9.70;1.00
18807;DHT22;9531;52.030;4.380;2023-02-11T17:08:12;9.40;1.00
18807;DHT22;9531;52.030;4.380;2023-02-11T17:10:39;9.90;99.90
18807;DHT22;9531;52.030;4.380;2023-02-11T17:13:06;7.80;99.90
18807;DHT22;9531;52.030;4.380;2023-02-11T17:15:35;9.00;99.90
18807;DHT22;9531;52.030;4.380;2023-02-11T17:18:03;9.60;1.00
18807;DHT22;9531;52.030;4.380;2023-02-11T17:20:32;12.60;1.00
18807;DHT22;9531;52.030;4.380;2023-02-11T17:22:59;9.40;1.00
18807;DHT22;9531;52.030;4.380;2023-02-11T17:25:27;9.60;99.90
18807;DHT22;9531;52.030;4.380;2023-02-11T17:27:54;7.10;1.00
18807;DHT22;9531;52.030;4.380;2023-02-11T17:30:21;11.70;1.00
18807;DHT22;9531;52.030;4.380;2023-02-11T17:32:49;11.50;1.00
18807;DHT22;9531;52.030;4.380;2023-02-11T17:35:17;6.00;1.00
18807;DHT22;9531;52.030;4.380;2023-02-11T17:37:46;11.90;1.00
18807;DHT22;9531;52.030;4.380;2023-02-11T17:40:13;11.40;1.00
18807;DHT22;9531;52.030;4.380;2023-02-11T17:42:41;9.20;1.00
18807;DHT22;9531;52.030;4.380;2023-02-11T17:45:08;9.10;1.00
18807;DHT22;9531;52.030;4.380;2023-02-11T17:47:37;9.50;99.90
18807;DHT22;9531;52.030;4.380;2023-02-11T17:50:05;9.40;99.90